Terminal Aerodrome Forecast
Issued by NWS

Home | Current Version | Previous Version | Text Only | Print | Product List | Glossary On
Versions: 1 2 3 4 5 6 7 8 9 10 11 12
000
FTUS44 KOUN 311139
TAFCSM
TAF
KCSM 311139Z 3112/0112 03015G24KT P6SM SCT025
     FM312300 08007KT P6SM SCT250
     FM011000 16012KT P6SM SCT250=

USA.gov is the U.S. government's official web portal to all federal, state and local government web resources and services.